Kezdőlap
METAR-TAF:

METAR-TAF

Repülőterek :

Szapporo, Japán

földrajzi szélesség: 43-07N, földrajzi hosszúság: 141-23E, magasság: 8 m

Jelenlegi meteorológiai megfigyelések

A jelentés 1 órával és 9 perccel ezelõtt készült, 06:00 UTC
Északnyugati szél 7 kt
Hőmérséklet 11°C
Páratartalom 94%
Légköri nyomás 1002 hPa
Látótávolság: 8000 m
Kevés felhő 300 lábon
Szakadozott felhőzet 700 lábon
Szakadozott felhőzet 2000 lábon
enyhe záporok,

METAR: RJCO 250600Z 31007KT 8000 -SHRA FEW003 BKN007 BKN020 11/10 Q1002

Idő: 16:09 (07:09 UTC)


TAF: hiányzik

Meteorológiai megfigyelések és előrejelzések több, mint 4000 repülőtéren (METAR és TAF jelentéseket).

A térképen piros és sárga pontok jelzik az elérhető meteorológiai állomásokat.

Mozgassa az egeret a pont fölött, hogy megjelenjen az állomás neve.

Azután kattintson az időjárási megfigyelések és előrejelzések megtekintéséhez.

A térkép megváltoztatása: kattintson a fekete keresztel jelölt zöld gombra ráközelítéshez, a vonallal jelölt zöld gombra távolításhoz, vagy a zöld nyilakra a szomszédos térképek eléréséhez.


METAR-TAF: